Terminal Aerodrome Forecast
Issued by NWS

Home | Current Version | Previous Version | Text Only | Print | Product List | Glossary On
Versions: 1 2 3 4 5 6 7 8 9 10 11 12 13 14 15 16 17
000
FTUS43 KTOP 011700
TAFFOE
TAF
KFOE 011726Z 0118/0218 18010KT P6SM SCT025 BKN040
     FM012200 18011KT P6SM VCTS SCT025 BKN040CB
     FM020600 14008KT P6SM VCTS BKN035CB
      TEMPO 0209/0213 2SM TSRA OVC030CB
     FM021500 14005KT 3SM -TSRA BKN030CB=

USA.gov is the U.S. government's official web portal to all federal, state and local government web resources and services.